This is the latest recevied weather packets stored in our database for station/object KO4LCK. If no packets are shown the sender has not sent any weather packets the latest 10 day(s).
| Time | Temp. | Humidity | Pressure | Rain* | Wind** | Luminosity | Snow |
|---|---|---|---|---|---|---|---|
| 1788104453 | 28.89° C | 71% | 1023.5 hPa | 0 mm | - | 246 W/m² | - |
| 1788104149 | 28.89° C | 70% | 1023.4 hPa | 0 mm | - | 176 W/m² | - |
| 1788103848 | 28.89° C | 69% | 1023.5 hPa | 0 mm | - | 221 W/m² | - |
| 1788103544 | 28.89° C | 69% | 1023.6 hPa | 0 mm | - | 733 W/m² | - |
| 1788103242 | 28.89° C | 71% | 1023.4 hPa | 0 mm | - | 200 W/m² | - |
| 1788102942 | 27.78° C | 75% | 1023.6 hPa | 0 mm | - | 687 W/m² | - |
| 1788102637 | 27.78° C | 74% | 1023.3 hPa | 0 mm | - | 170 W/m² | - |
| 1788102331 | 27.78° C | 74% | 1023.5 hPa | 0 mm | - | 642 W/m² | - |
| 1788102026 | 28.33° C | 74% | 1023.5 hPa | 0 mm | - | 143 W/m² | - |
| 1788101725 | 28.89° C | 73% | 1023.4 hPa | 0 mm | - | 139 W/m² | - |
| 1788101421 | 28.89° C | 72% | 1023.5 hPa | 0 mm | - | 292 W/m² | - |
| 1788101117 | 28.33° C | 72% | 1023.4 hPa | 0 mm | - | 214 W/m² | - |
| 1788100812 | 27.78° C | 76% | 1023.4 hPa | 0 mm | - | 586 W/m² | - |
| 1788100508 | 28.33° C | 74% | 1023.6 hPa | 0 mm | - | 212 W/m² | - |
| 1788100206 | 28.33° C | 74% | 1023.6 hPa | 0 mm | - | 253 W/m² | - |
| 1788099901 | 28.33° C | 75% | 1023.6 hPa | 0 mm | - | 180 W/m² | - |
| 1788099595 | 28.33° C | 74% | 1023.6 hPa | 0 mm | - | 468 W/m² | - |
| 1788099291 | 27.78° C | 76% | 1023.5 hPa | 0 mm | - | 454 W/m² | - |
| 1788098986 | 27.22° C | 78% | 1023.5 hPa | 0 mm | - | 409 W/m² | - |
| 1788098681 | 27.22° C | 78% | 1023.7 hPa | 0 mm | - | 400 W/m² | - |
| 1788098380 | 27.22° C | 78% | 1023.7 hPa | 0 mm | - | 368 W/m² | - |
| 1788098076 | 27.22° C | 78% | 1023.6 hPa | 0 mm | - | 347 W/m² | - |
| 1788097771 | 26.67° C | 81% | 1023.6 hPa | 0 mm | - | 331 W/m² | - |
| 1788097467 | 26.11° C | 81% | 1023.7 hPa | 0 mm | - | 311 W/m² | - |
| 1788097162 | 26.11° C | 82% | 1023.6 hPa | 0 mm | - | 300 W/m² | - |
* Rain latest hour (hover to see other rain measurements)
** Current wind speed in m/s (hover to see current wind gust speed)